Plunketts Creek, Pennsylvania
Current Conditions -  °F | °C
As of 7:54 PM on Monday 24 Nov 2014 (Local Time) from KIPT Reporting Station
Broken Clouds Broken Clouds  
Wind Chill: 64°   Ceiling: 9500
Heat Index: 64°   Visibility: 10mi
Dew Point: 50°   Wind: 8mph
Humidity: 60%   Direction: 190°S
Pressure: 29.59"   Gusts: NA
Location:  41.246°N, 77.0167°W
Report Text: KIPT 250054Z 19007KT 10SM BKN095 18/10 A2959 RMK AO2 SLP019 T01780100
Loading
Personal Weather Stations






























Interactive Weather Map New forecast layout! Learn more

10-Day Weather Forecast

Advertisements
Track Severe Weather on mobile